Estestar — 3ECR8 — position and weather

sailwx.info

Track history (hours):
 
Tides and Currents Weather Stations Pressure Air Temp Water Temp Dewpoint Dewpoint Depression Visibility Wind Speed Wind Dir Waves Ship Positions

Estestar

Last reported at 2015-Sep-01 13:33 UTC. Time now 2015-Sep-01 14:13 UTC.
Position N 44°41' E 036°14'.

Length 133 m; draft 4.5 m.

Type: Cargo ship. MMSI: 371448000.

Date/timePositionNaut miles runAvg speedWind from/ knotsBaromVisibWave heightAir tempDewpointWater temp
2015-Sep-01 13:33N 44°41' E 036°14'9 9.0
2015-Sep-01 12:33N 44°46' E 036°25'9 8.7
2015-Sep-01 11:33N 44°54' E 036°28'9 8.6
2015-Sep-01 10:33N 45°03' E 036°29'  
2015-Aug-28 02:33N 45°01' E 036°31'10 9.8
2015-Aug-28 01:33N 44°51' E 036°31'9 9.2
2015-Aug-28 00:33N 44°45' E 036°22'10 9.9
2015-Aug-27 23:33N 44°39' E 036°10'19 9.6
2015-Aug-27 21:32N 44°29' E 035°47'9 9.7
2015-Aug-27 20:33N 44°23' E 035°37'10 9.7
2015-Aug-27 19:33N 44°18' E 035°25'10 9.9
2015-Aug-27 18:33N 44°13' E 035°13'1010.0
2015-Aug-27 17:33N 44°07' E 035°02'1110.0
2015-Aug-27 16:29N 44°01' E 034°50'9 9.8
2015-Aug-27 15:32N 43°55' E 034°39'9 9.7
2015-Aug-27 14:33N 43°50' E 034°28'10 9.5
2015-Aug-27 13:33N 43°45' E 034°17'10 9.6
2015-Aug-27 12:30N 43°40' E 034°05'280 8.5
2015-Aug-26 03:21N 40°59' E 028°55'0 0.1
2015-Aug-26 02:21N 40°59' E 028°55'0 0.0
2015-Aug-25 23:15N 40°59' E 028°55'0 0.0
2015-Aug-25 21:27N 40°59' E 028°55'0 0.0
2015-Aug-25 18:21N 40°59' E 028°55'0 0.1
2015-Aug-25 17:27N 40°59' E 028°55'0 0.3
2015-Aug-25 16:30N 40°58' E 028°55'0 0.0
2015-Aug-25 15:12N 40°58' E 028°55'0 0.0
2015-Aug-24 23:15N 40°58' E 028°55'3 4.6
2015-Aug-24 22:32N 40°55' E 028°58'9 8.7
2015-Aug-24 21:33N 40°51' E 028°48'278 7.3
2015-Aug-23 07:33N 37°40' E 024°27'  
Track history (hours):
 
Tides and Currents Weather Stations Pressure Air Temp Water Temp Dewpoint Dewpoint Depression Visibility Wind Speed Wind Dir Waves Ship Positions

Estestar

Last reported at 2015-Sep-01 13:33 UTC. Time now 2015-Sep-01 14:13 UTC.
Position N 44°41' E 036°14'.

Length 133 m; draft 4.5 m.

Type: Cargo ship. MMSI: 371448000.

Date/timePositionNaut miles runAvg speedWind from/ knotsBaromVisibWave heightAir tempDewpointWater temp
2015-Sep-01 13:33N 44°41' E 036°14'9 9.0
2015-Sep-01 12:33N 44°46' E 036°25'9 8.7
2015-Sep-01 11:33N 44°54' E 036°28'9 8.6
2015-Sep-01 10:33N 45°03' E 036°29'  
2015-Aug-28 02:33N 45°01' E 036°31'10 9.8
2015-Aug-28 01:33N 44°51' E 036°31'9 9.2
2015-Aug-28 00:33N 44°45' E 036°22'10 9.9
2015-Aug-27 23:33N 44°39' E 036°10'19 9.6
2015-Aug-27 21:32N 44°29' E 035°47'9 9.7
2015-Aug-27 20:33N 44°23' E 035°37'10 9.7
2015-Aug-27 19:33N 44°18' E 035°25'10 9.9
2015-Aug-27 18:33N 44°13' E 035°13'1010.0
2015-Aug-27 17:33N 44°07' E 035°02'1110.0
2015-Aug-27 16:29N 44°01' E 034°50'9 9.8
2015-Aug-27 15:32N 43°55' E 034°39'9 9.7
2015-Aug-27 14:33N 43°50' E 034°28'10 9.5
2015-Aug-27 13:33N 43°45' E 034°17'10 9.6
2015-Aug-27 12:30N 43°40' E 034°05'280 8.5
2015-Aug-26 03:21N 40°59' E 028°55'0 0.1
2015-Aug-26 02:21N 40°59' E 028°55'0 0.0
2015-Aug-25 23:15N 40°59' E 028°55'0 0.0
2015-Aug-25 21:27N 40°59' E 028°55'0 0.0
2015-Aug-25 18:21N 40°59' E 028°55'0 0.1
2015-Aug-25 17:27N 40°59' E 028°55'0 0.3
2015-Aug-25 16:30N 40°58' E 028°55'0 0.0
2015-Aug-25 15:12N 40°58' E 028°55'0 0.0
2015-Aug-24 23:15N 40°58' E 028°55'3 4.6
2015-Aug-24 22:32N 40°55' E 028°58'9 8.7
2015-Aug-24 21:33N 40°51' E 028°48'278 7.3
2015-Aug-23 07:33N 37°40' E 024°27'  

Dump ship's entire track history